createdAt,value
2023-09-23T00:01:20.548Z,5.28
2023-09-23T00:03:51.058Z,6.03
2023-09-23T00:06:22.142Z,5.20
2023-09-23T00:08:51.841Z,4.80
2023-09-23T00:11:20.537Z,5.03
2023-09-23T00:13:49.199Z,5.53
2023-09-23T00:16:17.941Z,5.53
2023-09-23T00:18:47.239Z,5.93
2023-09-23T00:21:17.496Z,5.13
2023-09-23T00:23:48.091Z,5.35
2023-09-23T00:26:18.944Z,5.60
2023-09-23T00:28:53.344Z,5.20
2023-09-23T00:31:22.144Z,5.15
2023-09-23T00:33:50.917Z,6.18
2023-09-23T00:36:21.241Z,5.85
2023-09-23T00:38:49.873Z,5.45
2023-09-23T00:41:19.277Z,4.68
2023-09-23T00:43:49.850Z,4.68
2023-09-23T00:46:22.943Z,5.35
2023-09-23T00:48:52.654Z,5.45
2023-09-23T00:51:22.781Z,5.15
2023-09-23T00:53:53.288Z,5.38
2023-09-23T00:56:43.533Z,5.13
2023-09-23T00:59:18.396Z,5.43
2023-09-23T01:01:53.401Z,5.35
2023-09-23T01:04:22.774Z,5.57
2023-09-23T01:06:53.345Z,5.00
2023-09-23T01:09:23.261Z,4.60
2023-09-23T01:11:52.616Z,5.43
2023-09-23T01:14:22.640Z,5.22
2023-09-23T01:16:52.626Z,5.13
2023-09-23T01:19:22.903Z,5.90
2023-09-23T01:21:54.810Z,4.97
2023-09-23T01:24:26.658Z,5.00
2023-09-23T01:26:55.389Z,5.50
2023-09-23T01:29:24.712Z,5.35
2023-09-23T01:32:11.801Z,5.13
2023-09-23T01:34:40.787Z,5.13
2023-09-23T01:37:12.161Z,5.30
2023-09-23T01:39:42.705Z,5.22
2023-09-23T01:42:12.892Z,4.85
2023-09-23T01:44:42.472Z,5.88
2023-09-23T01:47:11.055Z,5.47
2023-09-23T01:49:40.721Z,5.60
2023-09-23T01:52:10.766Z,5.38
2023-09-23T01:54:39.483Z,5.10
2023-09-23T01:57:13.402Z,5.18
2023-09-23T01:59:42.706Z,5.40
2023-09-23T02:02:11.771Z,5.70
2023-09-23T02:07:11.598Z,5.68
2023-09-23T02:09:40.240Z,5.63
2023-09-23T02:12:10.233Z,5.07
2023-09-23T02:14:38.887Z,5.10
2023-09-23T02:17:07.583Z,5.30
2023-09-23T02:19:36.234Z,5.40
2023-09-23T02:22:08.322Z,5.70
2023-09-23T02:24:38.132Z,4.75
2023-09-23T02:27:07.000Z,5.15
2023-09-23T02:29:37.189Z,5.78
2023-09-23T02:32:08.085Z,5.20
2023-09-23T02:34:38.220Z,5.70
2023-09-23T02:37:07.117Z,5.57
2023-09-23T02:39:35.693Z,5.30
2023-09-23T02:42:05.879Z,5.90
2023-09-23T02:44:34.727Z,6.03
2023-09-23T02:47:05.637Z,5.43
2023-09-23T02:49:37.765Z,5.53
2023-09-23T02:52:07.761Z,6.18
2023-09-23T02:54:36.390Z,5.40
2023-09-23T02:57:09.952Z,5.75
2023-09-23T02:59:43.075Z,5.50
2023-09-23T03:02:21.605Z,5.70
2023-09-23T03:04:59.419Z,6.03
2023-09-23T03:07:36.462Z,5.63
2023-09-23T03:10:10.580Z,5.70
2023-09-23T03:12:44.537Z,5.55
2023-09-23T03:15:21.459Z,5.82
2023-09-23T03:17:55.231Z,5.63
2023-09-23T03:20:26.058Z,5.93
2023-09-23T03:22:55.680Z,6.00
2023-09-23T03:25:24.784Z,5.47
2023-09-23T03:27:54.118Z,5.65
2023-09-23T03:30:24.399Z,5.97
2023-09-23T03:32:56.595Z,6.03
2023-09-23T03:35:25.313Z,5.60
2023-09-23T03:37:55.243Z,5.38
2023-09-23T03:42:55.112Z,5.72
2023-09-23T03:45:23.786Z,5.93
2023-09-23T03:47:52.523Z,6.35
2023-09-23T03:50:22.888Z,5.75
2023-09-23T03:52:52.139Z,5.60
2023-09-23T03:57:49.202Z,5.45
2023-09-23T04:00:19.159Z,6.30
2023-09-23T04:02:48.883Z,6.65
2023-09-23T04:05:17.690Z,6.18
2023-09-23T04:07:51.586Z,6.20
2023-09-23T04:10:20.729Z,6.13
2023-09-23T04:12:49.272Z,5.88
2023-09-23T04:15:20.563Z,6.15
2023-09-23T04:17:49.698Z,5.65
2023-09-23T04:22:50.148Z,6.38
2023-09-23T04:25:21.914Z,6.03
2023-09-23T04:27:50.871Z,5.82
2023-09-23T04:30:19.733Z,5.85
2023-09-23T04:32:48.591Z,5.70
2023-09-23T04:35:17.986Z,6.22
2023-09-23T04:37:48.243Z,6.25
2023-09-23T04:40:16.944Z,5.40
2023-09-23T04:42:46.446Z,6.22
2023-09-23T04:45:15.192Z,5.97
2023-09-23T04:47:47.025Z,5.68
2023-09-23T04:50:16.547Z,6.10
2023-09-23T04:52:45.582Z,6.32
2023-09-23T04:55:15.803Z,5.88
2023-09-23T04:57:44.387Z,6.50
2023-09-23T05:00:17.308Z,6.38
2023-09-23T05:02:47.391Z,6.38
2023-09-23T05:05:16.852Z,5.97
2023-09-23T05:07:45.635Z,6.00
2023-09-23T05:10:15.902Z,5.93
2023-09-23T05:12:45.460Z,6.03
2023-09-23T05:15:16.815Z,6.00
2023-09-23T05:17:45.804Z,5.88
2023-09-23T05:20:26.898Z,6.18
2023-09-23T05:22:57.051Z,6.00
2023-09-23T05:25:28.352Z,5.93
2023-09-23T05:27:58.123Z,6.93
2023-09-23T05:30:28.686Z,6.72
2023-09-23T05:32:57.507Z,6.65
2023-09-23T05:35:26.483Z,6.30
2023-09-23T05:37:55.637Z,6.32
2023-09-23T05:40:29.000Z,6.32
2023-09-23T05:42:59.103Z,6.88
2023-09-23T05:45:27.899Z,6.80
2023-09-23T05:47:56.819Z,6.43
2023-09-23T05:50:25.800Z,6.50
2023-09-23T05:52:57.935Z,6.40
2023-09-23T05:55:26.743Z,6.55
2023-09-23T05:57:56.560Z,6.30
2023-09-23T06:00:27.181Z,6.63
2023-09-23T06:02:55.915Z,7.03
2023-09-23T06:05:25.717Z,6.28
2023-09-23T06:07:56.778Z,6.60
2023-09-23T06:10:25.695Z,6.70
2023-09-23T06:12:55.882Z,6.28
2023-09-23T06:15:27.733Z,6.20
2023-09-23T06:17:56.775Z,6.55
2023-09-23T06:22:54.455Z,6.38
2023-09-23T06:25:23.107Z,6.28
2023-09-23T06:27:53.124Z,6.07
2023-09-23T06:30:22.096Z,6.15
2023-09-23T06:32:52.250Z,6.20
2023-09-23T06:35:21.394Z,6.53
2023-09-23T06:40:18.923Z,6.38
2023-09-23T06:42:49.116Z,6.43
2023-09-23T06:45:20.192Z,7.60
2023-09-23T06:47:49.276Z,7.10
2023-09-23T06:52:48.013Z,6.82
2023-09-23T06:55:16.993Z,7.15
2023-09-23T06:57:45.623Z,7.00
2023-09-23T07:00:15.141Z,6.32
2023-09-23T07:02:44.143Z,6.93
2023-09-23T07:07:45.467Z,6.65
2023-09-23T07:10:14.342Z,7.32
2023-09-23T07:12:43.039Z,6.50
2023-09-23T07:15:12.409Z,6.60
2023-09-23T07:17:40.939Z,7.28
2023-09-23T07:20:10.805Z,7.55
2023-09-23T07:22:39.738Z,6.40
2023-09-23T07:25:10.270Z,7.00
2023-09-23T07:27:39.020Z,7.50
2023-09-23T07:30:09.408Z,6.60
2023-09-23T07:32:38.104Z,6.80
2023-09-23T07:35:08.961Z,7.28
2023-09-23T07:37:37.884Z,7.40
2023-09-23T07:40:08.430Z,7.63
2023-09-23T07:42:38.804Z,7.93
2023-09-23T07:45:09.890Z,7.28
2023-09-23T07:47:38.878Z,7.18
2023-09-23T07:50:08.445Z,7.80
2023-09-23T07:52:37.270Z,7.47
2023-09-23T07:55:07.205Z,7.70
2023-09-23T07:57:37.373Z,8.75
2023-09-23T08:00:08.902Z,8.63
2023-09-23T08:02:40.644Z,7.35
2023-09-23T08:05:11.318Z,8.13
2023-09-23T08:07:40.149Z,7.55
2023-09-23T08:10:09.338Z,8.18
2023-09-23T08:12:39.485Z,7.90
2023-09-23T08:15:10.181Z,7.93
2023-09-23T08:17:40.203Z,8.75
2023-09-23T08:20:19.308Z,7.65
2023-09-23T08:22:48.219Z,8.38
2023-09-23T08:25:17.794Z,8.15
2023-09-23T08:27:48.649Z,8.60
2023-09-23T08:30:18.384Z,8.38
2023-09-23T08:32:47.221Z,7.45
2023-09-23T08:35:15.905Z,8.38
2023-09-23T08:37:47.326Z,7.75
2023-09-23T08:40:17.686Z,8.18
2023-09-23T08:42:52.999Z,8.13
2023-09-23T08:45:24.336Z,8.85
2023-09-23T08:47:53.463Z,8.35
2023-09-23T08:52:51.483Z,9.43
2023-09-23T08:55:22.611Z,9.25
2023-09-23T08:57:52.647Z,10.13
2023-09-23T09:00:22.253Z,7.90
2023-09-23T09:02:50.890Z,7.43
2023-09-23T09:05:21.152Z,6.75
2023-09-23T09:07:49.845Z,5.97
2023-09-23T09:10:18.764Z,5.55
2023-09-23T09:15:19.595Z,5.88
2023-09-23T09:17:48.196Z,5.70
2023-09-23T09:20:17.067Z,5.50
2023-09-23T09:22:47.773Z,5.15
2023-09-23T09:25:16.448Z,4.85
2023-09-23T09:27:45.388Z,4.82
2023-09-23T09:30:14.835Z,4.65
2023-09-23T09:32:46.411Z,4.35
2023-09-23T09:35:16.561Z,3.65
2023-09-23T09:37:47.124Z,3.35
2023-09-23T09:40:19.859Z,2.80
2023-09-23T09:42:55.403Z,2.58
2023-09-23T09:45:25.021Z,2.22
2023-09-23T09:47:58.925Z,2.50
2023-09-23T09:50:28.378Z,2.70
2023-09-23T09:52:57.401Z,2.85
2023-09-23T09:55:26.350Z,2.60
2023-09-23T10:00:28.715Z,2.95
2023-09-23T10:03:07.404Z,3.33
2023-09-23T10:05:37.306Z,2.65
2023-09-23T10:08:14.461Z,2.90
2023-09-23T10:10:48.609Z,3.28
2023-09-23T10:13:23.710Z,3.10
2023-09-23T10:15:53.627Z,2.90
2023-09-23T10:18:23.772Z,3.20
2023-09-23T10:20:53.958Z,2.70
2023-09-23T10:23:23.392Z,2.80
2023-09-23T10:25:53.966Z,2.47
2023-09-23T10:28:25.315Z,2.00
2023-09-23T10:31:04.165Z,1.77
2023-09-23T10:33:36.134Z,1.63
2023-09-23T10:36:06.501Z,1.83
2023-09-23T10:38:39.229Z,1.88
2023-09-23T10:41:08.097Z,2.47
2023-09-23T10:43:36.677Z,2.10
2023-09-23T10:46:06.556Z,1.85
2023-09-23T10:48:37.441Z,1.50
2023-09-23T10:51:07.402Z,1.50
2023-09-23T10:53:36.322Z,1.55
2023-09-23T10:56:04.995Z,1.70
2023-09-23T10:58:33.819Z,2.03
2023-09-23T11:01:03.753Z,1.98
2023-09-23T11:03:32.690Z,2.25
2023-09-23T11:06:03.445Z,2.03
2023-09-23T11:08:32.484Z,2.17
2023-09-23T11:13:29.720Z,1.90
2023-09-23T11:15:58.358Z,1.85
2023-09-23T11:18:29.623Z,1.98
2023-09-23T11:20:58.311Z,1.77
2023-09-23T11:23:31.314Z,1.83
2023-09-23T11:26:01.037Z,2.53
2023-09-23T11:28:29.984Z,2.20
2023-09-23T11:30:59.906Z,2.63
2023-09-23T11:33:28.605Z,3.00
2023-09-23T11:35:58.799Z,3.30
2023-09-23T11:38:27.571Z,2.95
2023-09-23T11:40:58.512Z,3.10
2023-09-23T11:43:27.462Z,3.17
2023-09-23T11:45:56.128Z,2.55
2023-09-23T11:48:25.014Z,2.85
2023-09-23T11:50:55.876Z,2.50
2023-09-23T11:53:26.167Z,2.88
2023-09-23T11:55:55.156Z,2.60
2023-09-23T11:58:25.442Z,2.67
2023-09-23T12:00:55.323Z,2.85
2023-09-23T12:03:24.280Z,2.90
2023-09-23T12:05:54.922Z,2.90
2023-09-23T12:08:24.301Z,2.78
2023-09-23T12:10:56.406Z,2.70
2023-09-23T12:13:26.946Z,3.35
2023-09-23T12:15:56.218Z,3.22
2023-09-23T12:20:54.933Z,2.80
2023-09-23T12:23:25.067Z,2.90
2023-09-23T12:25:54.181Z,2.35
2023-09-23T12:28:23.056Z,2.72
2023-09-23T12:30:53.373Z,2.35
2023-09-23T12:33:22.299Z,2.30
2023-09-23T12:35:51.125Z,2.70
2023-09-23T12:38:20.006Z,2.47
2023-09-23T12:40:49.292Z,2.65
2023-09-23T12:43:18.105Z,2.80
2023-09-23T12:45:46.960Z,2.17
2023-09-23T12:48:17.250Z,2.60
2023-09-23T12:50:46.187Z,2.67
2023-09-23T12:53:15.120Z,2.20
2023-09-23T12:55:43.972Z,2.17
2023-09-23T12:58:14.103Z,2.20
2023-09-23T13:00:43.827Z,2.60
2023-09-23T13:03:12.812Z,2.40
2023-09-23T13:05:43.294Z,2.50
2023-09-23T13:08:12.586Z,2.50
2023-09-23T13:13:10.267Z,2.95
2023-09-23T13:15:39.127Z,3.10
2023-09-23T13:18:09.461Z,2.83
2023-09-23T13:20:38.517Z,3.50
2023-09-23T13:23:08.886Z,3.30
2023-09-23T13:25:37.804Z,3.03
2023-09-23T13:28:06.913Z,2.90
2023-09-23T13:33:10.023Z,3.10
2023-09-23T13:35:39.174Z,3.50
2023-09-23T13:38:09.486Z,2.83
2023-09-23T13:40:38.536Z,3.92
2023-09-23T13:43:07.402Z,2.85
2023-09-23T13:45:36.991Z,3.20
2023-09-23T13:48:09.680Z,2.40
2023-09-23T13:50:38.944Z,2.13
2023-09-23T13:53:09.293Z,2.78
2023-09-23T13:55:38.291Z,1.73
2023-09-23T13:58:08.408Z,1.73
2023-09-23T14:00:37.392Z,1.85
2023-09-23T14:03:06.700Z,1.65
2023-09-23T14:08:04.120Z,1.52
2023-09-23T14:10:34.417Z,1.98
2023-09-23T14:13:05.306Z,1.75
2023-09-23T14:15:34.230Z,3.05
2023-09-23T14:18:04.119Z,2.25
2023-09-23T14:20:34.474Z,1.95
2023-09-23T14:23:03.439Z,1.85
2023-09-23T14:25:32.398Z,1.80
2023-09-23T14:28:02.702Z,1.50
2023-09-23T14:30:31.673Z,1.55
2023-09-23T14:33:01.014Z,1.30
2023-09-23T14:37:58.775Z,1.30
2023-09-23T14:40:28.449Z,1.35
2023-09-23T14:42:57.515Z,1.50
2023-09-23T14:45:27.806Z,1.30
2023-09-23T14:47:56.730Z,1.27
2023-09-23T14:50:26.065Z,1.30
2023-09-23T14:52:54.899Z,1.27
2023-09-23T14:55:23.719Z,1.75
2023-09-23T14:57:53.830Z,1.38
2023-09-23T15:00:22.749Z,1.10
2023-09-23T15:02:53.066Z,1.40
2023-09-23T15:05:22.701Z,1.30
2023-09-23T15:07:51.698Z,1.30
2023-09-23T15:10:21.913Z,1.30
2023-09-23T15:12:50.748Z,1.20
2023-09-23T15:15:21.290Z,1.33
2023-09-23T15:17:50.268Z,1.35
2023-09-23T15:20:20.614Z,1.60
2023-09-23T15:22:49.787Z,2.22
2023-09-23T15:25:19.068Z,1.55
2023-09-23T15:27:47.919Z,1.85
2023-09-23T15:30:17.189Z,1.77
2023-09-23T15:32:48.295Z,1.52
2023-09-23T15:35:19.798Z,1.65
2023-09-23T15:37:50.200Z,1.77
2023-09-23T15:40:19.440Z,1.83
2023-09-23T15:45:16.859Z,2.17
2023-09-23T15:47:46.448Z,1.88
2023-09-23T15:50:16.233Z,1.88
2023-09-23T15:52:45.196Z,2.20
2023-09-23T15:55:16.925Z,2.00
2023-09-23T15:57:45.864Z,2.03
2023-09-23T16:00:15.801Z,1.90
2023-09-23T16:02:44.769Z,2.00
2023-09-23T16:05:14.762Z,2.30
2023-09-23T16:07:43.871Z,2.33
2023-09-23T16:10:12.894Z,1.90
2023-09-23T16:12:43.074Z,2.35
2023-09-23T16:15:11.900Z,2.40
2023-09-23T16:17:40.490Z,2.22
2023-09-23T16:20:10.715Z,2.17
2023-09-23T16:22:39.880Z,2.53
2023-09-23T16:25:09.157Z,2.38
2023-09-23T16:27:38.502Z,2.50
2023-09-23T16:30:09.866Z,2.28
2023-09-23T16:32:39.665Z,3.03
2023-09-23T16:35:12.144Z,2.50
2023-09-23T16:37:42.126Z,2.47
2023-09-23T16:40:11.513Z,2.53
2023-09-23T16:42:40.114Z,2.90
2023-09-23T16:45:10.665Z,2.92
2023-09-23T16:47:39.342Z,2.58
2023-09-23T16:50:09.243Z,3.30
2023-09-23T16:52:37.876Z,3.80
2023-09-23T16:55:07.103Z,3.80
2023-09-23T16:57:35.662Z,3.50
2023-09-23T17:00:04.581Z,3.20
2023-09-23T17:02:35.344Z,3.17
2023-09-23T17:05:04.372Z,3.33
2023-09-23T17:07:33.524Z,3.53
2023-09-23T17:10:02.439Z,3.53
2023-09-23T17:12:31.161Z,3.63
2023-09-23T17:14:59.802Z,3.60
2023-09-23T17:17:28.641Z,4.32
2023-09-23T17:19:59.033Z,4.30
2023-09-23T17:22:27.892Z,4.10
2023-09-23T17:24:56.466Z,3.83
2023-09-23T17:27:25.097Z,4.20
2023-09-23T17:29:53.663Z,4.38
2023-09-23T17:32:22.367Z,4.35
2023-09-23T17:34:51.027Z,4.70
2023-09-23T17:37:21.228Z,4.20
2023-09-23T17:39:49.832Z,4.93
2023-09-23T17:42:31.240Z,4.03
2023-09-23T17:45:00.367Z,4.10
2023-09-23T17:47:29.064Z,3.95
2023-09-23T17:49:57.798Z,4.70
2023-09-23T17:52:28.427Z,4.70
2023-09-23T17:55:00.055Z,5.15
2023-09-23T17:57:29.157Z,4.90
2023-09-23T17:59:57.792Z,5.10
2023-09-23T18:02:26.620Z,5.68
2023-09-23T18:05:05.349Z,4.90
2023-09-23T18:07:45.550Z,5.00
2023-09-23T18:10:14.344Z,5.35
2023-09-23T18:12:43.026Z,4.50
2023-09-23T18:15:14.122Z,4.70
2023-09-23T18:17:42.840Z,4.75
2023-09-23T18:20:46.333Z,6.15
2023-09-23T18:23:17.329Z,5.60
2023-09-23T18:25:45.995Z,5.13
2023-09-23T18:28:14.629Z,5.95
2023-09-23T18:30:49.618Z,5.68
2023-09-23T18:33:27.084Z,6.15
2023-09-23T18:35:55.918Z,5.43
2023-09-23T18:38:25.985Z,5.70
2023-09-23T18:40:54.791Z,5.47
2023-09-23T18:43:23.938Z,6.25
2023-09-23T18:45:54.024Z,5.50
2023-09-23T18:48:27.979Z,5.30
2023-09-23T18:50:58.236Z,5.10
2023-09-23T18:53:28.455Z,4.53
2023-09-23T18:56:00.792Z,5.53
2023-09-23T18:58:29.509Z,6.57
2023-09-23T19:00:58.189Z,5.50
2023-09-23T19:03:27.065Z,5.95
2023-09-23T19:05:55.791Z,6.32
2023-09-23T19:08:24.488Z,5.10
2023-09-23T19:10:54.931Z,5.43
2023-09-23T19:13:23.599Z,4.78
2023-09-23T19:15:52.213Z,5.00
2023-09-23T19:18:20.843Z,5.03
2023-09-23T19:20:49.760Z,5.65
2023-09-23T19:23:18.466Z,5.78
2023-09-23T19:25:54.274Z,6.35
2023-09-23T19:28:23.291Z,5.07
2023-09-23T19:30:52.281Z,5.35
2023-09-23T19:33:20.978Z,4.75
2023-09-23T19:35:49.818Z,6.38
2023-09-23T19:40:48.126Z,5.68
2023-09-23T19:43:19.858Z,6.47
2023-09-23T19:45:56.207Z,5.03
2023-09-23T19:48:25.020Z,6.07
2023-09-23T19:50:54.248Z,5.72
2023-09-23T19:55:51.686Z,5.53
2023-09-23T19:58:22.096Z,5.03
2023-09-23T20:00:51.370Z,4.93
2023-09-23T20:03:20.357Z,4.88
2023-09-23T20:05:49.725Z,5.00
2023-09-23T20:08:19.959Z,5.43
2023-09-23T20:10:51.440Z,5.10
2023-09-23T20:13:22.310Z,4.57
2023-09-23T20:15:51.292Z,5.30
2023-09-23T20:18:19.932Z,5.18
2023-09-23T20:20:49.351Z,5.38
2023-09-23T20:23:18.350Z,5.72
2023-09-23T20:25:49.845Z,5.15
2023-09-23T20:28:18.940Z,5.43
2023-09-23T20:30:50.293Z,5.00
2023-09-23T20:33:19.916Z,5.05
2023-09-23T20:35:50.635Z,6.03
2023-09-23T20:38:19.599Z,4.53
2023-09-23T20:40:48.564Z,4.15
2023-09-23T20:43:17.173Z,4.57
2023-09-23T20:45:46.057Z,4.60
2023-09-23T20:48:16.315Z,4.40
2023-09-23T20:50:45.087Z,4.28
2023-09-23T20:53:13.896Z,5.07
2023-09-23T20:55:42.468Z,4.88
2023-09-23T20:58:11.117Z,4.38
2023-09-23T21:00:39.844Z,4.38
2023-09-23T21:03:10.258Z,5.85
2023-09-23T21:05:40.730Z,6.20
2023-09-23T21:08:09.468Z,5.97
2023-09-23T21:10:40.546Z,6.00
2023-09-23T21:13:09.611Z,5.60
2023-09-23T21:15:40.229Z,4.97
2023-09-23T21:18:10.359Z,6.20
2023-09-23T21:20:40.834Z,6.47
2023-09-23T21:23:09.654Z,7.05
2023-09-23T21:25:38.183Z,6.95
2023-09-23T21:28:07.641Z,7.00
2023-09-23T21:30:38.319Z,6.10
2023-09-23T21:33:07.623Z,6.80
2023-09-23T21:35:36.406Z,5.20
2023-09-23T21:38:06.639Z,7.43
2023-09-23T21:40:35.290Z,7.65
2023-09-23T21:43:04.843Z,5.97
2023-09-23T21:45:33.562Z,5.35
2023-09-23T21:48:03.364Z,6.55
2023-09-23T21:50:32.277Z,7.50
2023-09-23T21:53:00.993Z,6.80
2023-09-23T21:55:31.145Z,5.88
2023-09-23T21:57:59.795Z,5.97
2023-09-23T22:00:29.376Z,4.57
2023-09-23T22:02:59.029Z,4.72
2023-09-23T22:05:29.299Z,5.70
2023-09-23T22:07:59.543Z,5.75
2023-09-23T22:10:28.486Z,4.90
2023-09-23T22:13:00.351Z,6.47
2023-09-23T22:15:30.675Z,5.35
2023-09-23T22:17:59.847Z,5.85
2023-09-23T22:20:29.253Z,5.15
2023-09-23T22:23:00.796Z,5.90
2023-09-23T22:25:30.759Z,6.05
2023-09-23T22:28:00.814Z,6.35
2023-09-23T22:30:30.402Z,6.38
2023-09-23T22:33:01.516Z,6.80
2023-09-23T22:35:33.113Z,5.55
2023-09-23T22:38:02.836Z,6.38
2023-09-23T22:40:32.916Z,6.07
2023-09-23T22:43:02.954Z,6.05
2023-09-23T22:45:39.520Z,6.55
2023-09-23T22:48:09.834Z,6.05
2023-09-23T22:50:38.775Z,6.88
2023-09-23T22:53:08.866Z,6.85
2023-09-23T22:55:39.598Z,6.32
2023-09-23T22:58:09.634Z,7.15
2023-09-23T23:00:40.204Z,7.45
2023-09-23T23:03:14.623Z,7.13
2023-09-23T23:05:47.167Z,7.13
2023-09-23T23:10:44.477Z,5.50
2023-09-23T23:13:14.924Z,5.97
2023-09-23T23:15:44.016Z,6.57
2023-09-23T23:18:13.808Z,6.15
2023-09-23T23:20:42.581Z,6.43
2023-09-23T23:23:11.240Z,5.43
2023-09-23T23:25:39.794Z,6.10
2023-09-23T23:28:08.969Z,7.88
2023-09-23T23:30:39.532Z,6.28
2023-09-23T23:33:08.323Z,5.88
2023-09-23T23:35:44.849Z,7.30
2023-09-23T23:38:15.829Z,8.38
2023-09-23T23:40:44.623Z,8.82
2023-09-23T23:43:14.391Z,10.27
2023-09-23T23:45:44.782Z,9.32
2023-09-23T23:48:13.477Z,10.10
2023-09-23T23:50:42.578Z,10.20
2023-09-23T23:53:11.283Z,10.25
2023-09-23T23:55:39.908Z,8.57
2023-09-23T23:58:08.503Z,8.50
